Bosque, NM (87006)

9:18 PM MST on December 07, 2016 (GMT -0700)
Las Nutrias | | Change Station

Elev 4738 ft 34.48 °N, 106.78 °W | Updated 1 second ago

Mostly Cloudy
Mostly Cloudy
36.3 °F
Feels Like 36 °F
N
1.0
Wind Variable Wind from NNE
Gusts 3.0 mph

Today
High -- | Low -- °F
--% Chance of Precip.
Yesterday
High -- | Low -- °F
Precip. -- in
Pressure 30.20 in
Visibility 10.0 miles
Clouds Scattered Clouds 7000 ft
Overcast 8000 ft
Windchill 36 °F
Dew Point 24 °F
Humidity 61%
Rainfall 0.00 in
Snow Depth Not available.
7:01 AM 4:56 PM
First Quarter, 59% visible
METAR KE80 080415Z AUTO 31005KT 10SM SCT070 OVC080 02/M08 A3020 RMK AO2 T00151080
Pressure 30.20 in
Visibility 10.0 miles
Clouds Scattered Clouds 7000 ft
Overcast 8000 ft
Windchill 36 °F
Dew Point 24 °F
Humidity 61%
Rainfall 0.00 in
Snow Depth Not available.
7:01 AM 4:56 PM
First Quarter, 59% visible
METAR KE80 080415Z AUTO 31005KT 10SM SCT070 OVC080 02/M08 A3020 RMK AO2 T00151080

10-Day Weather Forecast

Almanac

Astronomy

Dec. 07, 2016 Rise Set
Actual Time
Civil Twilight
Nautical Twilight
Astronomical Twilight
Moon
Length of Visible Light
Length of Day
Tomorrow will be .
, % of the Moon is Illuminated

Today's Extremes

State Highs State Lows

Community

WunderPhotos

Upload Photos

1,956,259 photos uploaded!

WunderBlog® & News

Nearby

Air Quality

  Air Quality AQ Index Pollutant
Not available.

Snow Depth

Station Depth Elevation

Earthquake Activity

City Distance Mag. Time & Date
Minimum magnitude displayed is 2.5.

Coastal Water Temperatures

Place Temperature

Stations

Nearby Weather Stations

Station Location Temp. Windchill Dew Point Humidity Wind Precip. Elev Updated Type
                   

Watches & Warnings

There are currently no watches in effect.